Pikeville, Tennessee
Current Conditions -  °F | °C
As of 4:53 PM on Thursday 27 Nov 2014 (Local Time) from KCSV Reporting Station
Overcast Overcast  
Wind Chill: 23°   Ceiling: 2000
Heat Index: 30°   Visibility: 10mi
Dew Point: 21°   Wind: 7mph
Humidity: 69%   Direction: 290°WNW
Pressure: 30.35"   Gusts: NA
Location:  35.61°N, 85.19°W
Report Text: KCSV 272253Z AUTO 29006KT 10SM OVC020 M01/M06 A3035 RMK AO2 SLP290 T10111061
Loading
Personal Weather Stations






























Interactive Weather Map New forecast layout! Learn more

10-Day Weather Forecast

Advertisements
Track Severe Weather on mobile